Wilmington, New York
Current Conditions -  °F | °C
As of 5:09 PM on Sunday 23 Nov 2014 (Local Time) from KSLK Reporting Station
Haze Haze  
Wind Chill: 33°   Ceiling: 12000
Heat Index: 38°   Visibility: 4mi
Dew Point: 38°   Wind: 6mph
Humidity: 100%   Direction: 220°SW
Pressure: 29.98"   Gusts: NA
Location:  44.39°N, 73.82°W
Report Text: KSLK 232209Z AUTO 22005KT 4SM BR SCT022 BKN120 03/03 A2998 RMK AO2 T00330033
Loading
Personal Weather Stations






























Interactive Weather Map New forecast layout! Learn more

10-Day Weather Forecast

Advertisements
Track Severe Weather on mobile